createdAt,value
2022-12-11T00:00:26.767Z,-2.08
2022-12-11T00:02:53.320Z,-2.09
2022-12-11T00:05:19.907Z,-2.12
2022-12-11T00:07:46.457Z,-2.13
2022-12-11T00:10:13.026Z,-2.13
2022-12-11T00:12:39.523Z,-2.10
2022-12-11T00:15:06.506Z,-2.13
2022-12-11T00:17:33.004Z,-2.13
2022-12-11T00:19:59.476Z,-2.10
2022-12-11T00:22:25.962Z,-2.13
2022-12-11T00:24:52.510Z,-2.17
2022-12-11T00:27:19.043Z,-2.21
2022-12-11T00:29:45.671Z,-2.23
2022-12-11T00:32:12.283Z,-2.19
2022-12-11T00:34:38.914Z,-2.19
2022-12-11T00:37:05.530Z,-2.19
2022-12-11T00:39:32.071Z,-2.19
2022-12-11T00:41:58.682Z,-2.18
2022-12-11T00:44:25.263Z,-2.22
2022-12-11T00:46:51.801Z,-2.20
2022-12-11T00:49:18.323Z,-2.19
2022-12-11T00:51:44.892Z,-2.20
2022-12-11T00:54:11.404Z,-2.19
2022-12-11T00:56:37.975Z,-2.19
2022-12-11T00:59:04.546Z,-2.18
2022-12-11T01:01:31.146Z,-2.17
2022-12-11T01:03:57.679Z,-2.18
2022-12-11T01:06:26.389Z,-2.18
2022-12-11T01:09:13.513Z,-2.24
2022-12-11T01:11:41.768Z,-2.24
2022-12-11T01:14:09.434Z,-2.21
2022-12-11T01:16:36.110Z,-2.20
2022-12-11T01:19:03.390Z,-2.19
2022-12-11T01:21:30.336Z,-2.21
2022-12-11T01:23:56.875Z,-2.24
2022-12-11T01:26:23.627Z,-2.24
2022-12-11T01:28:51.991Z,-2.27
2022-12-11T01:31:20.227Z,-2.34
2022-12-11T01:33:46.813Z,-2.36
2022-12-11T01:36:23.395Z,-2.35
2022-12-11T01:38:50.156Z,-2.33
2022-12-11T01:41:18.310Z,-2.34
2022-12-11T01:44:14.627Z,-2.37
2022-12-11T01:46:41.498Z,-2.37
2022-12-11T01:49:11.587Z,-2.39
2022-12-11T01:51:48.944Z,-2.34
2022-12-11T01:54:19.042Z,-2.41
2022-12-11T01:56:48.000Z,-2.44
2022-12-11T01:59:17.855Z,-2.46
2022-12-11T02:01:57.054Z,-2.42
2022-12-11T02:04:24.309Z,-2.46
2022-12-11T02:06:52.322Z,-2.47
2022-12-11T02:09:46.766Z,-2.43
2022-12-11T02:12:19.164Z,-2.39
2022-12-11T02:15:25.477Z,-2.38
2022-12-11T02:18:00.742Z,-2.38
2022-12-11T02:20:43.916Z,-2.36
2022-12-11T02:23:13.204Z,-2.34
2022-12-11T02:26:07.210Z,-2.36
2022-12-11T02:28:38.553Z,-2.34
2022-12-11T02:31:26.685Z,-2.35
2022-12-11T02:34:07.544Z,-2.37
2022-12-11T02:36:38.707Z,-2.43
2022-12-11T02:39:07.682Z,-2.43
2022-12-11T02:41:35.166Z,-2.42
2022-12-11T02:44:04.149Z,-2.44
2022-12-11T02:46:34.377Z,-2.41
2022-12-11T02:49:05.070Z,-2.39
2022-12-11T02:51:36.141Z,-2.39
2022-12-11T02:54:04.385Z,-2.41
2022-12-11T02:56:38.292Z,-2.44
2022-12-11T02:59:11.219Z,-2.46
2022-12-11T03:01:37.870Z,-2.51
2022-12-11T03:04:04.550Z,-2.52
2022-12-11T03:06:44.388Z,-2.48
2022-12-11T03:09:10.941Z,-2.50
2022-12-11T03:11:37.458Z,-2.45
2022-12-11T03:14:04.299Z,-2.46
2022-12-11T03:16:41.679Z,-2.47
2022-12-11T03:19:39.836Z,-2.51
2022-12-11T03:22:19.024Z,-2.51
2022-12-11T03:24:53.186Z,-2.56
2022-12-11T03:27:37.949Z,-2.55
2022-12-11T03:30:11.759Z,-2.54
2022-12-11T03:32:50.398Z,-2.58
2022-12-11T03:35:26.398Z,-2.57
2022-12-11T03:37:54.953Z,-2.61
2022-12-11T03:40:23.802Z,-2.59
2022-12-11T03:42:52.703Z,-2.54
2022-12-11T03:45:21.074Z,-2.54
2022-12-11T03:47:49.592Z,-2.51
2022-12-11T03:50:19.146Z,-2.62
2022-12-11T03:52:47.706Z,-2.62
2022-12-11T03:55:17.483Z,-2.60
2022-12-11T03:57:44.193Z,-2.64
2022-12-11T04:00:15.379Z,-2.66
2022-12-11T04:02:42.518Z,-2.70
2022-12-11T04:05:10.670Z,-2.69
2022-12-11T04:07:37.875Z,-2.66
2022-12-11T04:10:05.313Z,-2.66
2022-12-11T04:12:31.831Z,-2.68
2022-12-11T04:15:04.157Z,-2.67
2022-12-11T04:17:54.251Z,-2.67
2022-12-11T04:20:40.163Z,-2.69
2022-12-11T04:23:30.554Z,-2.74
2022-12-11T04:26:08.562Z,-2.77
2022-12-11T04:28:35.925Z,-2.77
2022-12-11T04:31:03.137Z,-2.76
2022-12-11T04:33:29.924Z,-2.75
2022-12-11T04:36:00.486Z,-2.75
2022-12-11T04:38:27.205Z,-2.76
2022-12-11T04:41:01.416Z,-2.73
2022-12-11T04:43:28.230Z,-2.77
2022-12-11T04:46:22.394Z,-2.81
2022-12-11T04:48:55.373Z,-2.80
2022-12-11T04:51:23.623Z,-2.79
2022-12-11T04:53:50.157Z,-2.78
2022-12-11T04:56:17.101Z,-2.81
2022-12-11T04:58:44.929Z,-2.79
2022-12-11T05:01:14.241Z,-2.79
2022-12-11T05:03:41.686Z,-2.79
2022-12-11T05:06:09.219Z,-2.76
2022-12-11T05:08:37.573Z,-2.76
2022-12-11T05:11:08.078Z,-2.76
2022-12-11T05:13:34.660Z,-2.82
2022-12-11T05:16:04.518Z,-2.83
2022-12-11T05:18:31.152Z,-2.81
2022-12-11T05:20:59.373Z,-2.79
2022-12-11T05:23:26.425Z,-2.82
2022-12-11T05:25:58.394Z,-2.81
2022-12-11T05:28:26.347Z,-2.83
2022-12-11T05:31:17.671Z,-2.82
2022-12-11T05:33:45.225Z,-2.82
2022-12-11T05:36:32.741Z,-2.81
2022-12-11T05:39:00.124Z,-2.76
2022-12-11T05:41:29.312Z,-2.79
2022-12-11T05:43:56.312Z,-2.79
2022-12-11T05:46:26.206Z,-2.77
2022-12-11T05:48:56.165Z,-2.84
2022-12-11T05:51:23.525Z,-2.79
2022-12-11T05:53:51.274Z,-2.81
2022-12-11T05:56:24.079Z,-2.81
2022-12-11T05:58:51.161Z,-2.81
2022-12-11T06:01:24.111Z,-2.78
2022-12-11T06:03:50.768Z,-2.77
2022-12-11T06:06:17.853Z,-2.74
2022-12-11T06:08:44.367Z,-2.78
2022-12-11T06:11:15.637Z,-2.78
2022-12-11T06:13:43.948Z,-2.79
2022-12-11T06:16:10.862Z,-2.77
2022-12-11T06:18:39.014Z,-2.82
2022-12-11T06:21:15.112Z,-2.81
2022-12-11T06:23:42.333Z,-2.82
2022-12-11T06:26:10.203Z,-2.87
2022-12-11T06:28:37.053Z,-2.87
2022-12-11T06:31:04.566Z,-2.91
2022-12-11T06:33:31.875Z,-2.90
2022-12-11T06:36:05.445Z,-2.87
2022-12-11T06:38:32.614Z,-2.89
2022-12-11T06:41:02.707Z,-2.89
2022-12-11T06:43:29.214Z,-2.85
2022-12-11T06:45:59.248Z,-2.81
2022-12-11T06:48:30.088Z,-2.82
2022-12-11T06:50:56.614Z,-2.87
2022-12-11T06:53:23.634Z,-2.95
2022-12-11T06:55:50.577Z,-2.92
2022-12-11T06:58:17.093Z,-2.90
2022-12-11T07:00:43.752Z,-2.87
2022-12-11T07:03:10.430Z,-2.84
2022-12-11T07:05:36.983Z,-2.81
2022-12-11T07:08:03.549Z,-2.86
2022-12-11T07:10:30.096Z,-2.89
2022-12-11T07:12:56.644Z,-2.90
2022-12-11T07:15:23.159Z,-2.94
2022-12-11T07:17:49.892Z,-2.92
2022-12-11T07:20:17.327Z,-2.90
2022-12-11T07:22:46.638Z,-2.86
2022-12-11T07:25:13.832Z,-2.91
2022-12-11T07:27:41.596Z,-2.98
2022-12-11T07:30:09.269Z,-2.97
2022-12-11T07:32:35.863Z,-2.98
2022-12-11T07:35:02.766Z,-3.03
2022-12-11T07:37:29.295Z,-3.09
2022-12-11T07:39:55.974Z,-3.18
2022-12-11T07:42:22.545Z,-3.30
2022-12-11T07:44:49.069Z,-3.32
2022-12-11T07:47:15.909Z,-3.35
2022-12-11T07:49:42.504Z,-3.37
2022-12-11T07:52:09.300Z,-3.44
2022-12-11T07:54:35.966Z,-3.48
2022-12-11T07:57:02.667Z,-3.47
2022-12-11T07:59:29.209Z,-3.52
2022-12-11T08:01:55.814Z,-3.52
2022-12-11T08:04:22.327Z,-3.55
2022-12-11T08:06:49.240Z,-3.67
2022-12-11T08:09:21.078Z,-3.71
2022-12-11T08:11:51.789Z,-3.82
2022-12-11T08:14:19.595Z,-3.84
2022-12-11T08:16:46.297Z,-3.83
2022-12-11T08:19:13.213Z,-3.84
2022-12-11T08:21:40.436Z,-3.84
2022-12-11T08:24:08.018Z,-3.89
2022-12-11T08:26:34.678Z,-3.95
2022-12-11T08:29:02.233Z,-4.04
2022-12-11T08:31:29.842Z,-4.16
2022-12-11T08:33:57.614Z,-4.22
2022-12-11T08:36:25.685Z,-4.29
2022-12-11T08:38:53.897Z,-4.28
2022-12-11T08:41:24.274Z,-4.10
2022-12-11T08:43:55.249Z,-4.14
2022-12-11T08:46:36.690Z,-4.22
2022-12-11T08:49:06.464Z,-4.26
2022-12-11T08:51:33.958Z,-4.26
2022-12-11T08:54:03.485Z,-4.34
2022-12-11T08:56:36.124Z,-4.38
2022-12-11T08:59:04.375Z,-4.41
2022-12-11T09:01:32.507Z,-4.42
2022-12-11T09:03:59.746Z,-4.44
2022-12-11T09:06:30.239Z,-4.46
2022-12-11T09:09:03.466Z,-4.42
2022-12-11T09:11:45.655Z,-4.42
2022-12-11T09:14:13.807Z,-4.41
2022-12-11T09:16:46.741Z,-4.38
2022-12-11T09:19:21.765Z,-4.40
2022-12-11T09:21:49.913Z,-4.35
2022-12-11T09:24:17.877Z,-4.34
2022-12-11T09:26:45.016Z,-4.34
2022-12-11T09:29:14.927Z,-4.30
2022-12-11T09:31:50.633Z,-4.31
2022-12-11T09:34:17.942Z,-4.30
2022-12-11T09:36:45.521Z,-4.23
2022-12-11T09:39:14.967Z,-4.18
2022-12-11T09:41:50.991Z,-4.17
2022-12-11T09:44:29.988Z,-4.19
2022-12-11T09:46:58.232Z,-4.21
2022-12-11T09:50:11.693Z,-4.22
2022-12-11T09:53:09.505Z,-4.21
2022-12-11T09:56:00.515Z,-4.14
2022-12-11T09:58:48.726Z,-4.11
2022-12-11T10:01:20.987Z,-4.07
2022-12-11T10:04:19.964Z,-4.08
2022-12-11T10:06:46.412Z,-4.07
2022-12-11T10:09:42.225Z,-4.08
2022-12-11T10:12:24.012Z,-4.06
2022-12-11T10:14:59.170Z,-4.07
2022-12-11T10:17:31.027Z,-4.02
2022-12-11T10:20:39.296Z,-4.01
2022-12-11T10:23:09.257Z,-3.98
2022-12-11T10:25:49.836Z,-3.97
2022-12-11T10:28:18.746Z,-3.91
2022-12-11T10:31:11.390Z,-3.87
2022-12-11T10:33:41.036Z,-3.88
2022-12-11T10:36:09.774Z,-3.86
2022-12-11T10:38:43.788Z,-3.84
2022-12-11T10:41:24.644Z,-3.74
2022-12-11T10:43:53.446Z,-3.70
2022-12-11T10:46:26.189Z,-3.09
2022-12-11T10:48:55.536Z,-1.97
2022-12-11T10:51:31.049Z,-0.90
2022-12-11T10:54:07.794Z,-0.43
2022-12-11T10:56:37.491Z,0.02
2022-12-11T10:59:04.577Z,0.25
2022-12-11T11:01:32.807Z,0.53
2022-12-11T11:04:07.239Z,0.71
2022-12-11T11:06:34.078Z,0.79
2022-12-11T11:09:02.010Z,0.48
2022-12-11T11:11:36.774Z,0.47
2022-12-11T11:14:18.494Z,0.44
2022-12-11T11:16:47.718Z,0.24
2022-12-11T11:19:32.468Z,0.28
2022-12-11T11:22:06.752Z,0.26
2022-12-11T11:24:40.701Z,0.26
2022-12-11T11:27:28.024Z,0.25
2022-12-11T11:29:58.255Z,0.23
2022-12-11T11:32:29.701Z,0.36
2022-12-11T11:35:17.385Z,0.42
2022-12-11T11:37:56.733Z,0.43
2022-12-11T11:40:28.870Z,0.31
2022-12-11T11:43:24.014Z,0.22
2022-12-11T11:45:55.651Z,0.14
2022-12-11T11:49:00.920Z,0.23
2022-12-11T11:51:34.949Z,0.27
2022-12-11T11:54:08.713Z,0.31
2022-12-11T11:56:37.843Z,0.23
2022-12-11T11:59:23.558Z,0.26
2022-12-11T12:01:53.998Z,0.13
2022-12-11T12:04:20.581Z,0.05
2022-12-11T12:07:27.742Z,-0.14
2022-12-11T12:10:33.351Z,-0.21
2022-12-11T12:13:48.272Z,-0.33
2022-12-11T12:16:52.165Z,-0.28
2022-12-11T12:19:30.861Z,-0.31
2022-12-11T12:22:08.313Z,-0.42
2022-12-11T12:24:46.430Z,-0.39
2022-12-11T12:30:22.096Z,-0.49
2022-12-11T12:33:12.165Z,-0.57
2022-12-11T12:35:50.410Z,-0.54
2022-12-11T12:38:26.711Z,-0.59
2022-12-11T12:41:00.519Z,-0.57
2022-12-11T12:43:29.983Z,-0.61
2022-12-11T12:46:07.118Z,-0.72
2022-12-11T12:48:34.283Z,-0.81
2022-12-11T12:51:01.429Z,-0.86
2022-12-11T12:53:32.567Z,-0.83
2022-12-11T12:56:01.278Z,-0.75
2022-12-11T12:58:34.988Z,-0.85
2022-12-11T13:01:13.556Z,-0.97
2022-12-11T13:04:03.507Z,-1.08
2022-12-11T13:06:41.427Z,-1.13
2022-12-11T13:09:22.636Z,-1.10
2022-12-11T13:11:54.577Z,-1.02
2022-12-11T13:14:21.165Z,-1.05
2022-12-11T13:16:50.058Z,-1.12
2022-12-11T13:19:42.287Z,-1.13
2022-12-11T13:22:15.407Z,-1.11
2022-12-11T13:24:59.580Z,-1.29
2022-12-11T13:27:41.807Z,-1.42
2022-12-11T13:30:24.170Z,-1.39
2022-12-11T13:33:16.135Z,-1.35
2022-12-11T13:35:43.126Z,-1.32
2022-12-11T13:38:18.814Z,-1.35
2022-12-11T13:40:49.907Z,-1.33
2022-12-11T13:43:20.288Z,-1.36
2022-12-11T13:45:50.458Z,-1.38
2022-12-11T13:48:32.042Z,-1.44
2022-12-11T13:50:59.395Z,-1.44
2022-12-11T13:53:26.434Z,-1.43
2022-12-11T13:56:00.185Z,-1.46
2022-12-11T13:58:28.018Z,-1.43
2022-12-11T14:00:59.662Z,-1.40
2022-12-11T14:03:27.019Z,-1.42
2022-12-11T14:05:53.986Z,-1.45
2022-12-11T14:08:27.383Z,-1.49
2022-12-11T14:10:54.436Z,-1.47
2022-12-11T14:13:27.417Z,-1.46
2022-12-11T14:15:54.690Z,-1.48
2022-12-11T14:18:24.841Z,-1.56
2022-12-11T14:20:59.580Z,-1.56
2022-12-11T14:23:35.084Z,-1.61
2022-12-11T14:26:19.879Z,-1.68
2022-12-11T14:28:46.524Z,-1.75
2022-12-11T14:31:21.122Z,-1.80
2022-12-11T14:33:55.846Z,-1.89
2022-12-11T14:36:23.611Z,-1.91
2022-12-11T14:38:56.799Z,-1.98
2022-12-11T14:41:28.997Z,-2.02
2022-12-11T14:44:01.134Z,-2.06
2022-12-11T14:46:38.532Z,-2.17
2022-12-11T14:49:17.140Z,-2.24
2022-12-11T14:51:44.615Z,-2.28
2022-12-11T14:54:22.270Z,-2.34
2022-12-11T14:56:49.143Z,-2.38
2022-12-11T14:59:28.340Z,-2.46
2022-12-11T15:02:23.160Z,-2.54
2022-12-11T15:05:22.011Z,-2.60
2022-12-11T15:07:59.165Z,-2.67
2022-12-11T15:10:31.777Z,-2.70
2022-12-11T15:12:59.230Z,-2.75
2022-12-11T15:15:28.783Z,-2.76
2022-12-11T15:17:55.684Z,-2.82
2022-12-11T15:20:30.450Z,-2.89
2022-12-11T15:23:00.442Z,-2.98
2022-12-11T15:25:29.402Z,-3.01
2022-12-11T15:27:59.736Z,-3.05
2022-12-11T15:30:29.313Z,-3.07
2022-12-11T15:33:04.415Z,-3.08
2022-12-11T15:35:30.999Z,-3.12
2022-12-11T15:37:59.554Z,-3.18
2022-12-11T15:40:27.051Z,-3.22
2022-12-11T15:42:55.058Z,-3.28
2022-12-11T15:45:24.645Z,-3.29
2022-12-11T15:47:52.072Z,-3.32
2022-12-11T15:50:21.776Z,-3.36
2022-12-11T15:52:49.536Z,-3.38
2022-12-11T15:55:16.614Z,-3.42
2022-12-11T15:57:49.997Z,-3.40
2022-12-11T16:00:18.865Z,-3.41
2022-12-11T16:02:46.333Z,-3.42
2022-12-11T16:05:13.216Z,-3.44
2022-12-11T16:07:40.445Z,-3.45
2022-12-11T16:10:08.673Z,-3.41
2022-12-11T16:12:35.191Z,-3.45
2022-12-11T16:15:01.772Z,-3.45
2022-12-11T16:17:28.301Z,-3.43
2022-12-11T16:19:54.881Z,-3.45
2022-12-11T16:22:21.432Z,-3.55
2022-12-11T16:24:48.036Z,-3.61
2022-12-11T16:27:18.583Z,-3.66
2022-12-11T16:29:49.222Z,-3.68
2022-12-11T16:32:16.058Z,-3.63
2022-12-11T16:34:43.725Z,-3.59
2022-12-11T16:37:10.643Z,-3.55
2022-12-11T16:39:38.859Z,-3.51
2022-12-11T16:42:06.071Z,-3.52
2022-12-11T16:44:32.935Z,-3.50
2022-12-11T16:46:59.454Z,-3.49
2022-12-11T16:49:26.039Z,-3.50
2022-12-11T16:51:52.575Z,-3.49
2022-12-11T16:54:19.202Z,-3.51
2022-12-11T16:56:45.769Z,-3.49
2022-12-11T16:59:13.018Z,-3.49
2022-12-11T17:01:40.648Z,-3.50
2022-12-11T17:04:07.293Z,-3.50
2022-12-11T17:06:33.950Z,-3.50
2022-12-11T17:09:00.872Z,-3.53
2022-12-11T17:11:27.686Z,-3.55
2022-12-11T17:13:59.617Z,-3.52
2022-12-11T17:16:29.192Z,-3.53
2022-12-11T17:18:56.762Z,-3.54
2022-12-11T17:21:23.596Z,-3.55
2022-12-11T17:23:50.749Z,-3.56
2022-12-11T17:26:18.355Z,-3.61
2022-12-11T17:28:45.235Z,-3.65
2022-12-11T17:31:17.637Z,-3.70
2022-12-11T17:33:45.986Z,-3.69
2022-12-11T17:36:15.258Z,-3.69
2022-12-11T17:38:41.805Z,-3.72
2022-12-11T17:41:15.511Z,-3.81
2022-12-11T17:43:47.894Z,-3.82
2022-12-11T17:46:14.769Z,-3.85
2022-12-11T17:48:41.500Z,-3.87
2022-12-11T17:51:09.736Z,-3.88
2022-12-11T17:53:36.811Z,-3.88
2022-12-11T17:56:06.479Z,-3.85
2022-12-11T17:58:33.846Z,-3.88
2022-12-11T18:01:05.528Z,-3.90
2022-12-11T18:03:32.115Z,-3.89
2022-12-11T18:06:04.895Z,-3.89
2022-12-11T18:08:31.525Z,-3.92
2022-12-11T18:11:06.104Z,-3.92
2022-12-11T18:13:32.761Z,-3.92
2022-12-11T18:16:05.564Z,-3.97
2022-12-11T18:18:32.195Z,-4.00
2022-12-11T18:20:59.179Z,-4.03
2022-12-11T18:23:26.094Z,-4.04
2022-12-11T18:25:52.917Z,-4.10
2022-12-11T18:28:19.512Z,-4.08
2022-12-11T18:30:46.824Z,-4.07
2022-12-11T18:33:13.762Z,-4.05
2022-12-11T18:35:41.312Z,-4.01
2022-12-11T18:38:08.098Z,-4.03
2022-12-11T18:40:34.639Z,-4.06
2022-12-11T18:43:01.187Z,-4.10
2022-12-11T18:45:27.779Z,-4.14
2022-12-11T18:47:56.502Z,-4.12
2022-12-11T18:50:23.113Z,-4.11
2022-12-11T18:52:53.965Z,-4.11
2022-12-11T18:55:20.874Z,-4.13
2022-12-11T18:57:47.488Z,-4.09
2022-12-11T19:00:15.090Z,-4.11
2022-12-11T19:02:41.654Z,-4.10
2022-12-11T19:05:09.542Z,-4.10
2022-12-11T19:07:36.508Z,-4.07
2022-12-11T19:10:03.952Z,-4.05
2022-12-11T19:12:30.699Z,-4.04
2022-12-11T19:14:57.246Z,-4.03
2022-12-11T19:17:23.757Z,-4.05
2022-12-11T19:19:50.402Z,-4.00
2022-12-11T19:22:16.936Z,-3.94
2022-12-11T19:24:43.618Z,-3.97
2022-12-11T19:27:13.468Z,-3.93
2022-12-11T19:29:40.637Z,-3.91
2022-12-11T19:32:07.217Z,-3.86
2022-12-11T19:34:33.750Z,-3.82
2022-12-11T19:37:00.390Z,-3.86
2022-12-11T19:39:27.611Z,-3.86
2022-12-11T19:41:54.169Z,-3.81
2022-12-11T19:44:20.752Z,-3.75
2022-12-11T19:46:47.330Z,-3.70
2022-12-11T19:49:13.913Z,-3.79
2022-12-11T19:51:43.099Z,-3.84
2022-12-11T19:54:13.326Z,-3.80
2022-12-11T19:56:40.098Z,-3.74
2022-12-11T19:59:09.091Z,-3.68
2022-12-11T20:01:37.515Z,-3.65
2022-12-11T20:04:11.598Z,-3.65
2022-12-11T20:06:40.468Z,-3.63
2022-12-11T20:09:10.961Z,-3.60
2022-12-11T20:11:39.816Z,-3.58
2022-12-11T20:14:06.696Z,-3.55
2022-12-11T20:17:02.025Z,-3.50
2022-12-11T20:19:20.569Z,-3.49
2022-12-11T20:21:47.106Z,-3.52
2022-12-11T20:24:13.644Z,-3.51
2022-12-11T20:26:40.257Z,-3.51
2022-12-11T20:29:08.355Z,-3.51
2022-12-11T20:31:36.694Z,-3.54
2022-12-11T20:34:04.677Z,-3.52
2022-12-11T20:36:31.324Z,-3.50
2022-12-11T20:38:58.129Z,-3.51
2022-12-11T20:41:25.535Z,-3.49
2022-12-11T20:43:55.705Z,-3.54
2022-12-11T20:46:25.304Z,-3.59
2022-12-11T20:48:52.801Z,-3.58
2022-12-11T20:51:25.841Z,-3.53
2022-12-11T20:54:01.356Z,-3.48
2022-12-11T20:56:30.472Z,-3.44
2022-12-11T20:58:58.259Z,-3.46
2022-12-11T21:01:28.291Z,-3.44
2022-12-11T21:03:54.942Z,-3.43
2022-12-11T21:06:32.600Z,-3.44
2022-12-11T21:09:01.594Z,-3.49
2022-12-11T21:11:28.229Z,-3.47
2022-12-11T21:13:55.383Z,-3.43
2022-12-11T21:16:23.274Z,-3.40
2022-12-11T21:18:50.025Z,-3.40
2022-12-11T21:21:17.640Z,-3.40
2022-12-11T21:23:44.578Z,-3.36
2022-12-11T21:26:11.113Z,-3.34
2022-12-11T21:28:37.736Z,-3.31
2022-12-11T21:31:11.175Z,-3.37
2022-12-11T21:33:39.360Z,-3.36
2022-12-11T21:36:07.164Z,-3.33
2022-12-11T21:38:33.715Z,-3.37
2022-12-11T21:41:25.243Z,-3.49
2022-12-11T21:46:41.320Z,-3.48
2022-12-11T21:49:11.340Z,-3.43
2022-12-11T21:51:45.347Z,-3.42
2022-12-11T21:54:16.773Z,-3.40
2022-12-11T21:56:44.141Z,-3.38
2022-12-11T21:59:11.114Z,-3.39
2022-12-11T22:01:42.163Z,-3.40
2022-12-11T22:04:10.680Z,-3.41
2022-12-11T22:06:37.409Z,-3.41
2022-12-11T22:09:04.834Z,-3.39
2022-12-11T22:11:33.883Z,-3.40
2022-12-11T22:14:01.788Z,-3.39
2022-12-11T22:16:29.153Z,-3.47
2022-12-11T22:18:56.146Z,-3.51
2022-12-11T22:21:22.728Z,-3.54
2022-12-11T22:23:49.971Z,-3.55
2022-12-11T22:26:20.121Z,-3.54
2022-12-11T22:28:47.004Z,-3.48
2022-12-11T22:31:16.774Z,-3.43
2022-12-11T22:33:43.781Z,-3.39
2022-12-11T22:36:11.535Z,-3.36
2022-12-11T22:38:39.482Z,-3.31
2022-12-11T22:41:16.266Z,-3.32
2022-12-11T22:43:47.093Z,-3.34
2022-12-11T22:46:18.506Z,-3.35
2022-12-11T22:48:45.103Z,-3.32
2022-12-11T22:51:12.025Z,-3.31
2022-12-11T22:53:39.088Z,-3.28
2022-12-11T22:56:07.313Z,-3.28
2022-12-11T22:58:34.370Z,-3.30
2022-12-11T23:01:02.577Z,-3.27
2022-12-11T23:03:29.776Z,-3.25
2022-12-11T23:05:58.803Z,-3.28
2022-12-11T23:08:28.745Z,-3.35
2022-12-11T23:10:55.346Z,-3.36
2022-12-11T23:13:21.846Z,-3.35
2022-12-11T23:15:48.416Z,-3.33
2022-12-11T23:18:15.091Z,-3.33
2022-12-11T23:20:41.647Z,-3.28
2022-12-11T23:23:08.501Z,-3.32
2022-12-11T23:25:35.072Z,-3.42
2022-12-11T23:28:01.716Z,-3.45
2022-12-11T23:30:28.405Z,-3.42
2022-12-11T23:32:54.923Z,-3.48
2022-12-11T23:35:21.476Z,-3.49
2022-12-11T23:37:48.018Z,-3.47
2022-12-11T23:40:14.673Z,-3.47
2022-12-11T23:42:41.400Z,-3.42
2022-12-11T23:45:08.257Z,-3.36
2022-12-11T23:47:34.799Z,-3.41
2022-12-11T23:50:01.357Z,-3.39
2022-12-11T23:52:27.868Z,-3.35
2022-12-11T23:54:55.410Z,-3.34
2022-12-11T23:57:21.970Z,-3.36
2022-12-11T23:59:48.516Z,-3.47
